Time;durP1;ratioP1;P1;durP2;ratioP2;P2;SDS_P1;SDS_P2;PMS_P1;PMS_P2;Temp;Humidity;BMP_temperature;BMP_pressure;BME280_temperature;BME280_humidity;BME280_pressure;Samples;Min_cycle;Max_cycle;Signal;HPM_P1;HPM_P2
2022/10/26 00:01:06;;;;;;;5.40;3.72;;;;;17.20;101227.00;;;;5068498;28;20645;-76
2022/10/26 00:03:34;;;;;;;2.97;2.53;;;;;17.20;101235.00;;;;5068199;28;20206;-76
2022/10/26 00:06:07;;;;;;;5.60;3.10;;;;;17.20;101232.00;;;;5067757;28;20726;-76
2022/10/26 00:08:34;;;;;;;4.65;2.80;;;;;17.20;101228.00;;;;5068177;28;20206;-76
2022/10/26 00:11:01;;;;;;;4.13;2.97;;;;;17.20;101224.00;;;;5068629;28;20191;-75
2022/10/26 00:13:29;;;;;;;7.38;2.80;;;;;17.20;101227.00;;;;5067576;28;20199;-76
2022/10/26 00:15:56;;;;;;;3.30;3.00;;;;;17.20;101219.00;;;;5067893;28;20202;-76
2022/10/26 00:18:25;;;;;;;5.47;3.38;;;;;17.30;101225.00;;;;5068043;28;20199;-76
2022/10/26 00:20:52;;;;;;;4.53;2.55;;;;;17.30;101212.00;;;;5067557;28;20195;-76
2022/10/26 00:23:19;;;;;;;9.00;3.17;;;;;17.30;101214.00;;;;5069484;28;20195;-76
2022/10/26 00:25:55;;;;;;;3.92;3.13;;;;;17.20;101202.00;;;;5071398;28;20668;-76
2022/10/26 00:28:22;;;;;;;5.10;3.13;;;;;17.30;101203.00;;;;5071714;28;20244;-76
2022/10/26 00:30:49;;;;;;;5.22;2.72;;;;;17.30;101210.00;;;;5071268;28;20241;-76
2022/10/26 00:33:17;;;;;;;4.47;3.08;;;;;17.30;101200.00;;;;5071334;28;20231;-76
2022/10/26 00:35:48;;;;;;;4.38;2.75;;;;;17.30;101203.00;;;;5071509;28;20225;-76
2022/10/26 00:38:15;;;;;;;4.00;2.78;;;;;17.40;101200.00;;;;5071412;28;20202;-76
2022/10/26 00:40:43;;;;;;;4.38;2.85;;;;;17.40;101205.00;;;;5071902;28;20195;-76
2022/10/26 00:43:15;;;;;;;6.32;2.97;;;;;17.40;101202.00;;;;5070827;28;20703;-76
2022/10/26 00:45:44;;;;;;;5.55;3.05;;;;;17.40;101195.00;;;;5071264;28;20199;-76
2022/10/26 00:48:19;;;;;;;5.22;3.15;;;;;17.40;101191.00;;;;5071093;28;20237;-75
2022/10/26 00:50:48;;;;;;;3.25;2.95;;;;;17.50;101185.00;;;;5071072;28;20203;-76
2022/10/26 00:53:17;;;;;;;4.50;3.10;;;;;17.50;101184.00;;;;5071301;28;20207;-76
2022/10/26 00:55:48;;;;;;;3.17;2.45;;;;;17.50;101180.00;;;;5071226;28;20227;-76
2022/10/26 00:58:16;;;;;;;3.55;2.65;;;;;17.50;101181.00;;;;5070625;28;20207;-76
2022/10/26 01:00:44;;;;;;;4.65;3.50;;;;;17.50;101177.00;;;;5071555;28;20211;-76
2022/10/26 01:03:11;;;;;;;4.07;2.80;;;;;17.60;101167.00;;;;5070463;28;20211;-76
2022/10/26 01:05:42;;;;;;;3.22;2.65;;;;;17.60;101173.00;;;;5070505;28;20210;-76
2022/10/26 01:08:12;;;;;;;2.80;2.40;;;;;17.60;101172.00;;;;5070733;28;20320;-76
2022/10/26 01:10:42;;;;;;;2.50;2.22;;;;;17.60;101175.00;;;;5070832;28;20207;-76
2022/10/26 01:13:11;;;;;;;5.57;2.55;;;;;17.60;101171.00;;;;5070481;28;20283;-76
2022/10/26 01:15:48;;;;;;;3.15;2.40;;;;;17.60;101166.00;;;;5070575;28;20724;-76
2022/10/26 01:18:24;;;;;;;5.55;2.95;;;;;17.60;101167.00;;;;5070750;28;20202;-76
2022/10/26 01:21:14;;;;;;;3.90;2.90;;;;;17.60;101157.00;;;;5070277;28;20201;-76
2022/10/26 01:23:57;;;;;;;5.07;2.28;;;;;17.60;101163.00;;;;5070744;28;20846;-76
2022/10/26 01:26:51;;;;;;;4.43;2.75;;;;;17.60;101164.00;;;;5069969;28;20637;-76
2022/10/26 01:29:57;;;;;;;3.08;2.38;;;;;17.60;101154.00;;;;5070159;28;20202;-76
2022/10/26 01:32:31;;;;;;;2.70;2.35;;;;;17.70;101147.00;;;;5049218;28;20695;-76
2022/10/26 01:35:07;;;;;;;2.88;2.30;;;;;17.70;101148.00;;;;5069943;28;20233;-76
2022/10/26 01:37:39;;;;;;;3.97;2.47;;;;;17.80;101141.00;;;;5070566;28;20210;-76
2022/10/26 01:40:12;;;;;;;3.92;2.25;;;;;17.80;101143.00;;;;5070283;28;20214;-76
2022/10/26 01:42:46;;;;;;;4.53;2.40;;;;;17.80;101140.00;;;;5070097;28;20210;-76
2022/10/26 01:45:14;;;;;;;4.63;2.17;;;;;17.80;101132.00;;;;5069754;28;20724;-76
2022/10/26 01:47:45;;;;;;;3.25;2.40;;;;;17.80;101134.00;;;;5070540;28;20199;-76
2022/10/26 01:50:13;;;;;;;2.45;2.17;;;;;17.90;101138.00;;;;5069669;28;20203;-76
2022/10/26 01:52:40;;;;;;;5.20;2.25;;;;;17.90;101131.00;;;;5070083;28;20668;-76
2022/10/26 01:55:45;;;;;;;4.45;2.10;;;;;17.80;101132.00;;;;5069389;28;20237;-76
2022/10/26 01:58:37;;;;;;;2.67;2.15;;;;;17.90;101134.00;;;;5069943;28;20288;-76
2022/10/26 02:01:16;;;;;;;3.28;1.98;;;;;17.90;101133.00;;;;5070074;28;20198;-76
2022/10/26 02:03:50;;;;;;;2.80;2.25;;;;;17.90;101132.00;;;;5070257;28;20662;-76
2022/10/26 02:06:25;;;;;;;3.65;2.67;;;;;17.90;101133.00;;;;5069520;28;20708;-76
2022/10/26 02:09:08;;;;;;;4.28;2.47;;;;;17.90;101134.00;;;;5070143;28;20198;-76
2022/10/26 02:11:41;;;;;;;3.50;2.20;;;;;17.90;101132.00;;;;5069847;28;20584;-76
2022/10/26 02:14:18;;;;;;;3.17;2.08;;;;;17.90;101128.00;;;;5069401;28;20195;-76
2022/10/26 02:16:53;;;;;;;6.40;2.50;;;;;18.00;101128.00;;;;5069497;28;20199;-76
2022/10/26 02:19:31;;;;;;;3.45;2.70;;;;;17.90;101124.00;;;;5069026;28;20680;-76
2022/10/26 02:22:04;;;;;;;3.80;2.28;;;;;18.00;101115.00;;;;5069502;28;20206;-76
2022/10/26 02:24:34;;;;;;;4.32;2.00;;;;;18.00;101121.00;;;;5069266;28;20210;-76
2022/10/26 02:27:05;;;;;;;2.63;2.40;;;;;18.00;101110.00;;;;5069723;28;20225;-76
2022/10/26 02:29:34;;;;;;;4.38;2.17;;;;;18.10;101114.00;;;;5069268;28;20199;-76
2022/10/26 02:32:03;;;;;;;5.63;2.13;;;;;18.10;101119.00;;;;5069942;28;20199;-75
2022/10/26 02:34:34;;;;;;;4.55;2.47;;;;;18.10;101106.00;;;;5068926;28;20234;-76
2022/10/26 02:37:04;;;;;;;3.33;2.28;;;;;18.10;101095.00;;;;5069769;28;20202;-76
2022/10/26 02:39:34;;;;;;;3.08;1.92;;;;;18.10;101099.00;;;;5069258;28;20490;-76
2022/10/26 02:42:05;;;;;;;3.40;2.72;;;;;18.10;101085.00;;;;5070303;28;20290;-76
2022/10/26 02:44:36;;;;;;;2.92;2.28;;;;;18.10;101085.00;;;;5069578;28;20218;-76
2022/10/26 02:47:03;;;;;;;6.07;2.50;;;;;18.10;101085.00;;;;5069369;28;20198;-76
2022/10/26 02:49:32;;;;;;;4.05;2.75;;;;;18.10;101084.00;;;;5068764;28;20203;-76
2022/10/26 02:52:04;;;;;;;4.40;2.33;;;;;18.10;101090.00;;;;5068943;28;20202;-76
2022/10/26 02:54:39;;;;;;;5.28;2.30;;;;;18.10;101086.00;;;;5069268;28;20206;-76
2022/10/26 02:57:12;;;;;;;4.47;2.40;;;;;18.10;101092.00;;;;5068754;28;20672;-76
2022/10/26 02:59:42;;;;;;;3.38;2.10;;;;;18.20;101092.00;;;;5069532;28;20195;-76
2022/10/26 03:02:11;;;;;;;4.70;2.30;;;;;18.20;101087.00;;;;5069600;28;20203;-76
2022/10/26 03:04:40;;;;;;;3.65;2.33;;;;;18.20;101099.00;;;;5069216;28;20213;-76
2022/10/26 03:07:07;;;;;;;4.30;2.28;;;;;18.20;101088.00;;;;5069294;28;20191;-76
2022/10/26 03:09:34;;;;;;;4.75;2.72;;;;;18.20;101099.00;;;;5068975;28;20205;-76
2022/10/26 03:12:02;;;;;;;4.40;2.22;;;;;18.20;101092.00;;;;5068875;28;20210;-76
2022/10/26 03:14:29;;;;;;;5.25;2.67;;;;;18.20;101079.00;;;;5068477;28;20225;-76
2022/10/26 03:16:56;;;;;;;3.63;2.38;;;;;18.20;101079.00;;;;5069023;28;20197;-76
2022/10/26 03:19:24;;;;;;;4.35;2.75;;;;;18.20;101078.00;;;;5068588;28;20273;-76
2022/10/26 03:21:53;;;;;;;5.03;2.85;;;;;18.20;101077.00;;;;5068747;28;20191;-76
2022/10/26 03:24:20;;;;;;;5.22;2.63;;;;;18.20;101082.00;;;;5068393;28;20240;-76
2022/10/26 03:26:47;;;;;;;5.25;3.00;;;;;18.20;101077.00;;;;5068312;28;20214;-76
2022/10/26 03:29:15;;;;;;;3.65;2.58;;;;;18.20;101078.00;;;;5068297;28;20653;-76
2022/10/26 03:31:42;;;;;;;3.05;2.70;;;;;18.20;101078.00;;;;5068325;28;20226;-76
2022/10/26 03:34:09;;;;;;;3.58;2.72;;;;;18.20;101069.00;;;;5068415;28;20238;-76
2022/10/26 03:36:36;;;;;;;4.20;2.47;;;;;18.30;101072.00;;;;5068416;28;20614;-76
2022/10/26 03:39:05;;;;;;;6.40;2.70;;;;;18.20;101075.00;;;;5068833;28;20203;-76
2022/10/26 03:41:32;;;;;;;2.58;2.13;;;;;18.20;101074.00;;;;5068262;28;20206;-76
2022/10/26 03:43:59;;;;;;;3.97;2.63;;;;;18.30;101074.00;;;;5068598;28;20203;-76
2022/10/26 03:46:26;;;;;;;4.20;2.70;;;;;18.30;101065.00;;;;5068067;28;20485;-76
2022/10/26 03:48:54;;;;;;;4.35;2.20;;;;;18.30;101066.00;;;;5068643;28;20207;-76
2022/10/26 03:51:21;;;;;;;4.13;2.40;;;;;18.20;101060.00;;;;5068146;28;20214;-76
2022/10/26 03:53:49;;;;;;;3.42;2.30;;;;;18.20;101065.00;;;;5067797;28;20203;-76
2022/10/26 03:56:17;;;;;;;3.17;2.17;;;;;18.20;101069.00;;;;5068302;28;20543;-76
2022/10/26 03:58:45;;;;;;;2.55;2.03;;;;;18.20;101067.00;;;;5072247;28;20587;-76
2022/10/26 04:01:12;;;;;;;4.32;2.60;;;;;18.20;101068.00;;;;5072059;28;20202;-76
2022/10/26 04:03:39;;;;;;;3.05;2.58;;;;;18.20;101058.00;;;;5072491;28;20203;-76
2022/10/26 04:06:07;;;;;;;4.43;2.75;;;;;18.20;101058.00;;;;5072002;28;20209;-76
2022/10/26 04:08:34;;;;;;;3.88;2.80;;;;;18.20;101064.00;;;;5071608;28;20293;-76
2022/10/26 04:11:01;;;;;;;6.15;2.65;;;;;18.20;101063.00;;;;5071898;28;20555;-76
2022/10/26 04:13:30;;;;;;;7.45;2.65;;;;;18.20;101066.00;;;;5071587;28;20203;-76
2022/10/26 04:15:57;;;;;;;5.45;2.58;;;;;18.20;101068.00;;;;5070682;28;20233;-76
2022/10/26 04:18:25;;;;;;;3.25;2.47;;;;;18.20;101059.00;;;;5071793;28;20221;-76
2022/10/26 04:20:52;;;;;;;3.10;2.28;;;;;18.20;101058.00;;;;5071343;28;20207;-76
2022/10/26 04:23:20;;;;;;;4.70;2.70;;;;;18.20;101064.00;;;;5070958;28;20203;-75
2022/10/26 04:25:48;;;;;;;3.58;2.72;;;;;18.20;101054.00;;;;5070580;28;20206;-75
2022/10/26 04:28:15;;;;;;;5.22;2.60;;;;;18.20;101058.00;;;;5071367;28;20206;-75
2022/10/26 04:30:43;;;;;;;5.70;2.65;;;;;18.20;101053.00;;;;5070797;28;20631;-76
2022/10/26 04:33:11;;;;;;;4.47;2.58;;;;;18.20;101054.00;;;;5070840;28;20262;-76
2022/10/26 04:35:38;;;;;;;2.88;2.15;;;;;18.20;101049.00;;;;5070743;28;20606;-76
2022/10/26 04:38:07;;;;;;;2.85;2.25;;;;;18.20;101056.00;;;;5071287;28;20210;-76
2022/10/26 04:40:35;;;;;;;3.83;2.50;;;;;18.20;101051.00;;;;5070699;28;20664;-76
2022/10/26 04:43:02;;;;;;;4.28;2.63;;;;;18.20;101042.00;;;;5070772;28;20210;-76
2022/10/26 04:45:30;;;;;;;5.43;2.75;;;;;18.20;101043.00;;;;5070656;28;20560;-76
2022/10/26 04:48:04;;;;;;;4.63;2.40;;;;;18.20;101040.00;;;;5071227;28;20676;-76
2022/10/26 04:50:31;;;;;;;5.32;2.55;;;;;18.20;101035.00;;;;5070242;28;20198;-76
2022/10/26 04:52:59;;;;;;;3.85;2.67;;;;;18.20;101035.00;;;;5070761;28;20207;-76
2022/10/26 04:55:26;;;;;;;5.13;2.75;;;;;18.20;101036.00;;;;5070592;28;20265;-76
2022/10/26 04:57:53;;;;;;;5.85;3.45;;;;;18.20;101037.00;;;;5070265;28;20561;-75
2022/10/26 05:00:21;;;;;;;4.25;2.70;;;;;18.20;101046.00;;;;5070145;28;20201;-76
2022/10/26 05:02:48;;;;;;;3.60;2.17;;;;;18.20;101045.00;;;;5070671;28;20197;-76
2022/10/26 05:05:18;;;;;;;5.53;2.75;;;;;18.20;101039.00;;;;5069798;28;20187;-76
2022/10/26 05:07:53;;;;;;;4.30;2.63;;;;;18.20;101053.00;;;;5069653;28;20684;-76
2022/10/26 05:10:20;;;;;;;3.25;2.22;;;;;18.20;101047.00;;;;5070093;28;20210;-76
2022/10/26 05:12:51;;;;;;;4.15;2.95;;;;;18.20;101055.00;;;;5070650;28;20194;-76
2022/10/26 05:15:18;;;;;;;4.38;2.35;;;;;18.20;101057.00;;;;5069955;28;20562;-76
2022/10/26 05:17:45;;;;;;;3.70;2.45;;;;;18.20;101050.00;;;;5070687;28;20210;-76
2022/10/26 05:20:13;;;;;;;6.32;2.60;;;;;18.20;101054.00;;;;5070588;28;20198;-76
2022/10/26 05:22:41;;;;;;;7.03;2.50;;;;;18.20;101057.00;;;;5069881;28;20199;-76
2022/10/26 05:25:09;;;;;;;2.90;2.22;;;;;18.20;101057.00;;;;5070321;28;20199;-76
2022/10/26 05:27:36;;;;;;;4.70;2.53;;;;;18.30;101062.00;;;;5070380;28;20206;-76
2022/10/26 05:30:03;;;;;;;3.95;2.40;;;;;18.30;101065.00;;;;5069420;28;20724;-76
2022/10/26 05:32:31;;;;;;;4.57;2.15;;;;;18.30;101061.00;;;;5069418;28;20207;-76
2022/10/26 05:34:58;;;;;;;4.55;2.35;;;;;18.30;101058.00;;;;5069371;28;20207;-76
2022/10/26 05:37:28;;;;;;;3.63;2.33;;;;;18.30;101060.00;;;;5069624;28;20222;-76
2022/10/26 05:39:57;;;;;;;4.78;2.22;;;;;18.30;101062.00;;;;5069262;28;20433;-76
2022/10/26 05:42:24;;;;;;;4.55;2.63;;;;;18.30;101062.00;;;;5069346;28;20207;-76
2022/10/26 05:44:51;;;;;;;4.93;2.55;;;;;18.30;101066.00;;;;5069614;28;20252;-76
2022/10/26 05:47:19;;;;;;;4.68;2.65;;;;;18.30;101061.00;;;;5069364;28;20207;-76
2022/10/26 05:49:46;;;;;;;3.70;2.28;;;;;18.30;101065.00;;;;5069212;28;20203;-76
2022/10/26 05:52:13;;;;;;;4.18;2.53;;;;;18.30;101067.00;;;;5069475;28;20228;-76
2022/10/26 05:54:41;;;;;;;2.92;2.10;;;;;18.40;101074.00;;;;5069451;28;20707;-76
2022/10/26 05:57:13;;;;;;;4.65;2.33;;;;;18.30;101067.00;;;;5069221;28;20234;-76
2022/10/26 05:59:41;;;;;;;5.75;2.70;;;;;18.40;101080.00;;;;5067948;28;20677;-76
2022/10/26 06:02:18;;;;;;;4.35;2.17;;;;;18.30;101081.00;;;;5069309;28;20207;-76
2022/10/26 06:04:47;;;;;;;4.47;2.42;;;;;18.40;101077.00;;;;5069190;28;20199;-76
2022/10/26 06:07:18;;;;;;;4.03;2.53;;;;;18.40;101076.00;;;;5068905;28;20198;-76
2022/10/26 06:09:46;;;;;;;2.60;2.03;;;;;18.40;101075.00;;;;5069025;28;21085;-76
2022/10/26 06:12:16;;;;;;;3.83;2.38;;;;;18.40;101077.00;;;;5068286;28;20198;-76
2022/10/26 06:14:44;;;;;;;2.65;2.10;;;;;18.40;101079.00;;;;5068726;28;20209;-76
2022/10/26 06:17:25;;;;;;;2.83;2.25;;;;;18.40;101080.00;;;;5068742;28;20591;-76
2022/10/26 06:20:08;;;;;;;2.80;2.35;;;;;18.30;101085.00;;;;5068720;28;20199;-76
2022/10/26 06:22:51;;;;;;;2.28;1.95;;;;;18.30;101082.00;;;;5068931;28;20206;-76
2022/10/26 06:25:28;;;;;;;4.28;2.10;;;;;18.30;101075.00;;;;5068925;28;20579;-76
2022/10/26 06:28:08;;;;;;;3.22;2.33;;;;;18.30;101077.00;;;;5069244;28;20252;-76
2022/10/26 06:30:35;;;;;;;3.38;2.15;;;;;18.40;101080.00;;;;5069037;28;20727;-76
2022/10/26 06:33:03;;;;;;;3.42;2.25;;;;;18.40;101080.00;;;;5068658;28;20731;-76
2022/10/26 06:35:37;;;;;;;8.13;2.55;;;;;18.40;101078.00;;;;5068326;28;20195;-76
2022/10/26 06:38:07;;;;;;;4.45;2.17;;;;;18.40;101077.00;;;;5069124;28;20218;-76
2022/10/26 06:40:39;;;;;;;5.22;2.30;;;;;18.50;101087.00;;;;5069119;28;20206;-76
2022/10/26 06:43:16;;;;;;;2.55;2.03;;;;;18.40;101084.00;;;;5068505;28;20203;-76
2022/10/26 06:45:47;;;;;;;3.15;2.03;;;;;18.50;101085.00;;;;5068032;28;20207;-76
2022/10/26 06:48:19;;;;;;;3.40;2.42;;;;;18.50;101080.00;;;;5068659;28;20199;-76
2022/10/26 06:50:51;;;;;;;2.58;2.03;;;;;18.50;101085.00;;;;5068430;28;20211;-76
2022/10/26 06:53:24;;;;;;;3.78;2.15;;;;;18.50;101085.00;;;;5068475;28;20199;-76
2022/10/26 06:55:52;;;;;;;3.47;1.80;;;;;18.50;101086.00;;;;5068019;28;20672;-76
2022/10/26 06:58:24;;;;;;;4.18;2.20;;;;;18.50;101077.00;;;;5067732;28;20214;-76
2022/10/26 07:00:54;;;;;;;2.35;1.83;;;;;18.60;101076.00;;;;5087040;28;20209;-76
2022/10/26 07:03:22;;;;;;;3.75;1.83;;;;;18.60;101087.00;;;;5088338;28;20660;-75
2022/10/26 07:05:50;;;;;;;3.03;1.92;;;;;18.60;101086.00;;;;5088453;28;20198;-75
2022/10/26 07:08:17;;;;;;;3.95;2.25;;;;;18.60;101088.00;;;;5088346;28;20583;-75
2022/10/26 07:10:45;;;;;;;2.58;2.17;;;;;18.70;101078.00;;;;5087447;28;20206;-76
2022/10/26 07:13:13;;;;;;;3.40;2.25;;;;;18.70;101084.00;;;;5088737;28;20206;-75
2022/10/26 07:15:42;;;;;;;7.43;2.38;;;;;18.70;101072.00;;;;5088551;28;20210;-75
2022/10/26 07:18:10;;;;;;;2.95;2.10;;;;;18.80;101077.00;;;;5088766;28;20225;-75
2022/10/26 07:20:38;;;;;;;3.40;2.25;;;;;18.80;101089.00;;;;5088487;28;20538;-75
2022/10/26 07:23:06;;;;;;;4.10;2.47;;;;;18.80;101094.00;;;;5087886;28;20202;-75
2022/10/26 07:25:37;;;;;;;2.78;1.95;;;;;18.80;101095.00;;;;5088246;28;20206;-75
2022/10/26 07:28:05;;;;;;;2.53;2.10;;;;;18.90;101094.00;;;;5088178;28;20671;-75
2022/10/26 07:30:33;;;;;;;3.72;2.03;;;;;18.90;101100.00;;;;5087869;28;20225;-75
2022/10/26 07:33:02;;;;;;;3.05;2.28;;;;;18.90;101104.00;;;;5087872;28;20230;-75
2022/10/26 07:35:29;;;;;;;2.33;2.13;;;;;18.90;101115.00;;;;5087938;28;20190;-75
2022/10/26 07:37:58;;;;;;;3.00;2.00;;;;;18.90;101111.00;;;;5087502;28;20586;-75
2022/10/26 07:40:26;;;;;;;3.83;2.15;;;;;19.00;101116.00;;;;5087131;28;20202;-74
2022/10/26 07:42:56;;;;;;;9.90;2.72;;;;;19.00;101119.00;;;;5088163;28;20205;-76
2022/10/26 07:45:23;;;;;;;4.10;1.63;;;;;19.00;101122.00;;;;5087763;28;20687;-74
2022/10/26 07:47:51;;;;;;;2.08;1.60;;;;;19.10;101123.00;;;;5088016;28;20210;-75
2022/10/26 07:50:19;;;;;;;2.72;2.03;;;;;19.10;101121.00;;;;5087329;28;20206;-75
2022/10/26 07:52:46;;;;;;;5.00;2.25;;;;;19.10;101113.00;;;;5087564;28;20205;-74
2022/10/26 07:55:14;;;;;;;2.15;1.95;;;;;19.20;101118.00;;;;5087265;28;20201;-75
2022/10/26 07:57:41;;;;;;;3.55;2.40;;;;;19.30;101135.00;;;;5087382;28;20703;-74
2022/10/26 08:00:10;;;;;;;4.32;2.03;;;;;19.30;101136.00;;;;5087521;28;20205;-75
2022/10/26 08:02:37;;;;;;;5.40;2.80;;;;;19.40;101137.00;;;;5087657;28;20209;-75
2022/10/26 08:05:05;;;;;;;3.95;2.05;;;;;19.40;101147.00;;;;5088128;28;20201;-75
2022/10/26 08:07:39;;;;;;;2.65;2.00;;;;;19.50;101145.00;;;;5087445;28;20213;-75
2022/10/26 08:10:08;;;;;;;2.67;1.90;;;;;19.50;101145.00;;;;5087081;28;20198;-75
2022/10/26 08:12:35;;;;;;;5.65;2.33;;;;;19.60;101140.00;;;;5087248;28;20578;-75
2022/10/26 08:15:02;;;;;;;4.35;2.17;;;;;19.70;101147.00;;;;5087312;28;20587;-75
2022/10/26 08:17:29;;;;;;;2.60;2.00;;;;;19.70;101143.00;;;;5087377;28;20226;-75
2022/10/26 08:19:57;;;;;;;2.97;2.40;;;;;19.80;101146.00;;;;5087707;28;20213;-75
2022/10/26 08:22:24;;;;;;;3.08;1.98;;;;;19.80;101135.00;;;;5087614;28;20207;-75
2022/10/26 08:24:53;;;;;;;3.95;2.40;;;;;19.90;101150.00;;;;5087905;28;20209;-75
2022/10/26 08:27:20;;;;;;;5.28;2.40;;;;;20.00;101163.00;;;;5087541;28;20198;-75
2022/10/26 08:29:47;;;;;;;3.50;2.60;;;;;20.00;101163.00;;;;5087645;28;20892;-75
2022/10/26 08:32:14;;;;;;;4.57;2.05;;;;;20.10;101163.00;;;;5088034;28;20194;-75
2022/10/26 08:34:42;;;;;;;4.60;2.20;;;;;20.20;101160.00;;;;5087267;28;20233;-75
2022/10/26 08:37:09;;;;;;;3.25;2.30;;;;;20.20;101162.00;;;;5087265;28;20687;-75
2022/10/26 08:39:36;;;;;;;4.40;1.95;;;;;20.30;101170.00;;;;5087508;28;20205;-75
2022/10/26 08:42:12;;;;;;;3.05;2.33;;;;;20.40;101186.00;;;;5087276;28;20206;-75
2022/10/26 08:44:45;;;;;;;2.17;1.95;;;;;20.40;101188.00;;;;5090227;28;20202;-75
2022/10/26 08:47:17;;;;;;;2.38;2.15;;;;;20.50;101191.00;;;;5090507;28;20586;-75
2022/10/26 08:49:51;;;;;;;4.78;2.50;;;;;20.50;101192.00;;;;5090899;28;20194;-75
2022/10/26 08:52:23;;;;;;;3.95;2.40;;;;;20.60;101180.00;;;;5090894;28;20198;-75
2022/10/26 08:54:54;;;;;;;4.45;2.28;;;;;20.60;101183.00;;;;5091033;28;20226;-75
2022/10/26 08:57:26;;;;;;;7.47;2.50;;;;;20.70;101184.00;;;;5090905;28;20230;-75
2022/10/26 08:59:59;;;;;;;2.80;2.42;;;;;20.70;101176.00;;;;5090824;28;20198;-75
2022/10/26 09:02:26;;;;;;;3.03;2.05;;;;;20.80;101180.00;;;;5091167;28;20202;-75
2022/10/26 09:04:54;;;;;;;3.00;2.33;;;;;20.90;101181.00;;;;5091763;28;20202;-75
2022/10/26 09:07:42;;;;;;;2.88;2.00;;;;;20.80;101186.00;;;;5091186;28;20205;-75
2022/10/26 09:10:24;;;;;;;5.88;1.92;;;;;20.90;101175.00;;;;5090533;28;20225;-75
2022/10/26 09:13:00;;;;;;;2.55;1.88;;;;;21.00;101174.00;;;;5091070;28;20578;-75
2022/10/26 09:15:37;;;;;;;5.70;2.05;;;;;21.00;101173.00;;;;5090894;28;20251;-75
2022/10/26 09:18:19;;;;;;;3.00;1.95;;;;;21.10;101168.00;;;;5091222;28;20590;-75
2022/10/26 09:20:57;;;;;;;2.55;2.35;;;;;21.20;101162.00;;;;5090892;28;20213;-75
2022/10/26 09:23:45;;;;;;;2.67;2.05;;;;;21.20;101162.00;;;;5089998;28;20582;-75
2022/10/26 09:26:18;;;;;;;3.55;1.73;;;;;21.30;101171.00;;;;5090871;28;20206;-75
2022/10/26 09:28:49;;;;;;;3.97;2.33;;;;;21.40;101177.00;;;;5090948;28;20194;-75
2022/10/26 09:31:17;;;;;;;2.78;2.08;;;;;21.50;101182.00;;;;5090581;28;20222;-75
2022/10/26 09:33:45;;;;;;;3.05;2.03;;;;;21.70;101191.00;;;;5090355;28;20230;-75
2022/10/26 09:36:18;;;;;;;3.53;1.98;;;;;21.70;101201.00;;;;5090880;28;20193;-75
2022/10/26 09:38:51;;;;;;;5.28;2.03;;;;;21.80;101201.00;;;;5090099;28;20222;-75
2022/10/26 09:41:24;;;;;;;3.35;1.50;;;;;21.90;101208.00;;;;5090495;28;20202;-75
2022/10/26 09:43:57;;;;;;;3.80;1.90;;;;;22.00;101209.00;;;;5090499;28;20203;-75
2022/10/26 09:46:30;;;;;;;1.75;1.58;;;;;22.20;101214.00;;;;5090472;28;20190;-75
2022/10/26 09:49:01;;;;;;;3.47;1.60;;;;;22.30;101217.00;;;;5090085;28;20198;-75
2022/10/26 09:51:28;;;;;;;1.92;1.58;;;;;22.40;101228.00;;;;5089665;28;20202;-75
2022/10/26 09:53:59;;;;;;;7.82;1.80;;;;;22.40;101230.00;;;;5089775;28;20198;-76
2022/10/26 09:56:30;;;;;;;6.05;1.60;;;;;22.50;101230.00;;;;5089257;28;20931;-75
2022/10/26 09:59:04;;;;;;;2.35;1.40;;;;;22.60;101235.00;;;;5073102;28;20548;-75
2022/10/26 10:01:33;;;;;;;3.00;1.80;;;;;22.70;101237.00;;;;5068974;28;20225;-75
2022/10/26 10:04:16;;;;;;;2.47;1.70;;;;;22.70;101240.00;;;;5069195;28;20193;-76
2022/10/26 10:06:45;;;;;;;2.35;1.55;;;;;22.80;101253.00;;;;5069987;28;20187;-76
2022/10/26 10:09:14;;;;;;;1.67;1.20;;;;;22.90;101251.00;;;;5069323;28;20209;-75
2022/10/26 10:11:44;;;;;;;2.65;1.25;;;;;23.00;101249.00;;;;5069362;28;20202;-75
2022/10/26 10:14:17;;;;;;;2.05;1.48;;;;;23.00;101250.00;;;;5069922;28;20199;-75
2022/10/26 10:16:54;;;;;;;3.45;1.80;;;;;23.10;101255.00;;;;5069713;28;20223;-76
2022/10/26 10:19:24;;;;;;;1.35;1.17;;;;;23.20;101259.00;;;;5068938;28;20202;-76
2022/10/26 10:21:55;;;;;;;2.80;1.48;;;;;23.30;101260.00;;;;5068333;28;20256;-75
2022/10/26 10:24:26;;;;;;;3.72;2.08;;;;;23.40;101266.00;;;;5068887;28;20226;-75
2022/10/26 10:27:01;;;;;;;2.35;1.45;;;;;23.40;101265.00;;;;5068355;28;20191;-76
2022/10/26 10:29:32;;;;;;;2.83;1.15;;;;;23.60;101272.00;;;;5069270;28;20194;-75
2022/10/26 10:32:01;;;;;;;2.15;1.52;;;;;23.70;101275.00;;;;5068774;28;20588;-76
2022/10/26 10:34:31;;;;;;;4.97;1.42;;;;;23.80;101279.00;;;;5069058;28;20238;-75
2022/10/26 10:36:59;;;;;;;2.30;1.40;;;;;23.80;101290.00;;;;5068908;28;20210;-76
2022/10/26 10:39:39;;;;;;;3.10;1.50;;;;;23.80;101297.00;;;;5069326;28;20199;-75
2022/10/26 10:42:15;;;;;;;2.65;1.63;;;;;23.90;101294.00;;;;5068484;28;20198;-76
2022/10/26 10:44:46;;;;;;;2.15;1.40;;;;;24.00;101309.00;;;;5068948;28;20260;-76
2022/10/26 10:47:22;;;;;;;3.05;1.92;;;;;24.00;101302.00;;;;5068950;28;20198;-76
2022/10/26 10:49:58;;;;;;;2.15;1.30;;;;;24.10;101311.00;;;;5069730;28;20217;-76
2022/10/26 10:52:28;;;;;;;2.40;1.38;;;;;24.20;101320.00;;;;5069087;28;20555;-76
2022/10/26 10:55:11;;;;;;;4.70;1.55;;;;;24.20;101326.00;;;;5069303;28;20206;-76
2022/10/26 10:57:51;;;;;;;3.78;1.17;;;;;24.30;101336.00;;;;5068452;28;21029;-76
2022/10/26 11:00:20;;;;;;;6.25;1.85;;;;;24.30;101329.00;;;;5068934;28;20199;-76
2022/10/26 11:03:02;;;;;;;2.22;1.35;;;;;24.30;101341.00;;;;5068395;28;20214;-76
2022/10/26 11:05:46;;;;;;;3.50;1.42;;;;;24.20;101339.00;;;;5068341;28;20199;-75
2022/10/26 11:08:19;;;;;;;3.08;1.80;;;;;24.20;101358.00;;;;5068117;28;20218;-76
2022/10/26 11:10:51;;;;;;;2.83;1.92;;;;;24.20;101351.00;;;;5068221;28;20202;-76
2022/10/26 11:13:23;;;;;;;2.85;1.60;;;;;24.10;101367.00;;;;5068747;28;20203;-76
2022/10/26 11:15:58;;;;;;;2.28;2.08;;;;;24.00;101368.00;;;;5069094;28;20206;-75
2022/10/26 11:18:31;;;;;;;3.90;2.28;;;;;24.00;101363.00;;;;5068380;28;20222;-76
2022/10/26 11:21:04;;;;;;;3.70;1.70;;;;;23.90;101372.00;;;;5068210;28;20204;-76
2022/10/26 11:23:37;;;;;;;2.53;2.15;;;;;23.90;101369.00;;;;5068568;28;20205;-75
2022/10/26 11:26:11;;;;;;;2.28;1.70;;;;;23.80;101376.00;;;;5069036;28;20211;-76
2022/10/26 11:28:46;;;;;;;3.50;1.52;;;;;23.80;101375.00;;;;5068308;28;20206;-76
2022/10/26 11:31:21;;;;;;;3.75;1.80;;;;;23.70;101368.00;;;;5068187;28;20571;-75
2022/10/26 11:33:57;;;;;;;4.25;1.95;;;;;23.70;101376.00;;;;5067610;28;20228;-75
2022/10/26 11:36:29;;;;;;;3.15;2.03;;;;;23.60;101371.00;;;;5067843;28;20198;-76
2022/10/26 11:39:01;;;;;;;2.47;1.73;;;;;23.60;101377.00;;;;5067939;28;20225;-76
2022/10/26 11:41:34;;;;;;;3.15;1.63;;;;;23.50;101380.00;;;;5068113;28;20199;-75
2022/10/26 11:44:09;;;;;;;4.80;1.88;;;;;23.50;101376.00;;;;5066790;28;20199;-76
2022/10/26 11:46:41;;;;;;;8.07;2.63;;;;;23.50;101375.00;;;;5067483;28;20203;-75
2022/10/26 11:49:17;;;;;;;2.22;1.67;;;;;23.50;101378.00;;;;5067815;28;20195;-75
2022/10/26 11:51:51;;;;;;;2.53;1.70;;;;;23.70;101376.00;;;;5067774;28;20576;-75
2022/10/26 11:54:24;;;;;;;2.22;1.73;;;;;23.70;101385.00;;;;5067086;28;20207;-76
2022/10/26 11:56:55;;;;;;;3.15;1.80;;;;;23.80;101378.00;;;;5068120;28;20199;-76
2022/10/26 11:59:26;;;;;;;2.70;1.80;;;;;23.90;101381.00;;;;5067200;28;20829;-75
2022/10/26 12:01:59;;;;;;;3.47;1.70;;;;;23.90;101391.00;;;;5068511;28;20217;-75
2022/10/26 12:04:36;;;;;;;3.47;1.70;;;;;24.00;101398.00;;;;5067254;28;20269;-75
2022/10/26 12:07:09;;;;;;;2.70;2.10;;;;;24.10;101394.00;;;;5067616;28;20237;-75
2022/10/26 12:09:40;;;;;;;3.65;2.20;;;;;24.20;101393.00;;;;5067784;28;20207;-75
2022/10/26 12:12:13;;;;;;;4.10;1.73;;;;;24.30;101391.00;;;;5067568;28;20207;-75
2022/10/26 12:14:46;;;;;;;1.95;1.52;;;;;24.40;101392.00;;;;5067641;28;20206;-76
2022/10/26 12:17:21;;;;;;;1.48;1.35;;;;;24.40;101396.00;;;;5068398;28;20203;-76
2022/10/26 12:19:51;;;;;;;1.65;1.25;;;;;24.40;101404.00;;;;5071952;28;20206;-75
2022/10/26 12:22:20;;;;;;;5.28;1.88;;;;;24.50;101396.00;;;;5071468;28;20210;-75
2022/10/26 12:25:07;;;;;;;3.90;1.75;;;;;24.50;101403.00;;;;5071699;28;20203;-75
2022/10/26 12:27:51;;;;;;;3.00;1.45;;;;;24.50;101399.00;;;;5071249;28;20203;-76